Skovorodino, Russia
Current Conditions -  °F | °C
As of 8:00 PM on Thursday 18 Dec 2014 (Local Time) from UHBB Reporting Station
Moderate Snow Moderate Snow  
Wind Chill: -22°   Ceiling: Unl
Heat Index: -6°   Visibility: 1.1mi
Dew Point: -8°   Wind: 9mph
Humidity: 92%   Direction: 170°S
Pressure: 30.24"   Gusts: NA
Location:  53.98°N, 123.92°E
Report Text: UHBB 181100Z 17004MPS 140V220 1900 SN NSC M21/M22 Q1024 TEMPO1500 SN RMK QFE750/1000 36490250
Loading
Personal Weather Stations






























Interactive Weather Map New forecast layout! Learn more

10-Day Weather Forecast

Advertisements
Track Severe Weather on mobile